Provo, Utah
Current Conditions -  °F | °C
As of 8:55 AM on Thursday 30 Oct 2014 (Local Time) from KPVU Reporting Station
Clear Clear  
Wind Chill:   Ceiling: Unl
Heat Index:   Visibility: 15mi
Dew Point: -2°   Wind: 0mph
Humidity: 70%   Direction: NA
Pressure: 30.3"   Gusts: NA
Location:  40.23°N, 111.66°W
Report Text: KPVU 301455Z 00000KT 15SM SKC 03/M02 A3030
Loading
Personal Weather Stations






























Interactive Weather Map
Tropical Storm Tracking
New forecast layout! Learn more

10-Day Weather Forecast

Advertisements
Track Severe Weather on mobile